createdAt,value
2023-11-15T00:01:27.152Z,1.70
2023-11-15T00:03:54.479Z,3.58
2023-11-15T00:06:21.939Z,3.33
2023-11-15T00:08:49.184Z,4.35
2023-11-15T00:11:20.330Z,3.63
2023-11-15T00:13:49.662Z,3.63
2023-11-15T00:16:16.949Z,1.33
2023-11-15T00:18:44.191Z,2.05
2023-11-15T00:21:11.362Z,2.47
2023-11-15T00:23:39.640Z,2.38
2023-11-15T00:26:06.716Z,1.75
2023-11-15T00:28:34.482Z,1.33
2023-11-15T00:31:01.507Z,1.83
2023-11-15T00:33:28.721Z,1.90
2023-11-15T00:35:57.146Z,2.92
2023-11-15T00:38:24.643Z,2.05
2023-11-15T00:40:52.360Z,1.80
2023-11-15T00:43:20.207Z,2.03
2023-11-15T00:45:47.422Z,2.75
2023-11-15T00:48:15.647Z,2.30
2023-11-15T00:50:43.072Z,7.15
2023-11-15T00:53:10.349Z,3.25
2023-11-15T00:55:37.340Z,1.15
2023-11-15T00:58:05.265Z,1.30
2023-11-15T01:00:40.776Z,1.95
2023-11-15T01:03:08.102Z,1.88
2023-11-15T01:05:35.345Z,1.92
2023-11-15T01:08:05.675Z,1.70
2023-11-15T01:10:35.927Z,1.83
2023-11-15T01:13:03.073Z,0.60
2023-11-15T01:15:31.245Z,2.75
2023-11-15T01:17:58.748Z,4.05
2023-11-15T01:20:26.587Z,1.65
2023-11-15T01:22:53.813Z,3.00
2023-11-15T01:25:21.919Z,3.03
2023-11-15T01:27:48.970Z,4.78
2023-11-15T01:30:16.050Z,2.85
2023-11-15T01:32:43.722Z,2.60
2023-11-15T01:35:10.820Z,2.67
2023-11-15T01:37:37.979Z,3.50
2023-11-15T01:40:07.759Z,1.17
2023-11-15T01:42:35.274Z,1.60
2023-11-15T01:45:04.120Z,3.35
2023-11-15T01:47:31.953Z,2.00
2023-11-15T01:50:00.705Z,2.65
2023-11-15T01:52:29.229Z,2.47
2023-11-15T01:54:58.054Z,1.73
2023-11-15T01:57:25.115Z,1.50
2023-11-15T01:59:53.022Z,1.60
2023-11-15T02:02:20.133Z,4.75
2023-11-15T02:04:47.250Z,1.90
2023-11-15T02:07:14.318Z,1.45
2023-11-15T02:09:42.353Z,1.83
2023-11-15T02:12:10.628Z,6.90
2023-11-15T02:14:38.961Z,2.00
2023-11-15T02:17:08.763Z,2.55
2023-11-15T02:19:35.853Z,2.55
2023-11-15T02:22:03.040Z,1.75
2023-11-15T02:24:30.682Z,2.10
2023-11-15T02:26:57.803Z,2.92
2023-11-15T02:29:25.444Z,3.28
2023-11-15T02:31:52.564Z,4.38
2023-11-15T02:34:19.691Z,2.78
2023-11-15T02:36:46.707Z,3.45
2023-11-15T02:39:14.726Z,1.83
2023-11-15T02:41:42.660Z,6.55
2023-11-15T02:44:11.597Z,1.35
2023-11-15T02:46:38.728Z,2.88
2023-11-15T02:49:05.900Z,2.72
2023-11-15T02:51:33.095Z,1.92
2023-11-15T02:54:00.273Z,1.75
2023-11-15T02:56:27.425Z,1.25
2023-11-15T02:58:54.509Z,3.40
2023-11-15T03:01:21.680Z,3.40
2023-11-15T03:03:49.382Z,3.08
2023-11-15T03:06:16.657Z,4.63
2023-11-15T03:08:43.719Z,4.82
2023-11-15T03:11:10.757Z,6.30
2023-11-15T03:13:37.864Z,4.68
2023-11-15T03:16:05.488Z,3.72
2023-11-15T03:18:33.431Z,4.93
2023-11-15T03:21:00.695Z,7.38
2023-11-15T03:23:27.900Z,2.78
2023-11-15T03:25:55.053Z,4.32
2023-11-15T03:28:22.184Z,6.15
2023-11-15T03:30:49.227Z,4.43
2023-11-15T03:33:16.733Z,12.43
2023-11-15T03:35:44.174Z,4.40
2023-11-15T03:38:11.265Z,2.63
2023-11-15T03:40:38.463Z,9.35
2023-11-15T03:43:05.616Z,6.15
2023-11-15T03:45:32.998Z,10.57
2023-11-15T03:48:04.161Z,3.72
2023-11-15T03:50:31.434Z,5.47
2023-11-15T03:53:01.227Z,5.25
2023-11-15T03:55:28.452Z,3.00
2023-11-15T03:57:55.936Z,12.73
2023-11-15T04:00:23.784Z,8.70
2023-11-15T04:02:51.344Z,5.32
2023-11-15T04:05:18.748Z,7.60
2023-11-15T04:07:45.979Z,5.32
2023-11-15T04:10:13.837Z,5.30
2023-11-15T04:12:41.072Z,6.32
2023-11-15T04:15:10.708Z,6.85
2023-11-15T04:17:38.105Z,5.20
2023-11-15T04:20:09.921Z,3.90
2023-11-15T04:22:37.183Z,5.65
2023-11-15T04:25:06.029Z,3.63
2023-11-15T04:27:33.146Z,5.57
2023-11-15T04:30:00.368Z,9.20
2023-11-15T04:32:27.458Z,4.70
2023-11-15T04:34:54.607Z,3.65
2023-11-15T04:37:23.354Z,5.65
2023-11-15T04:39:50.423Z,4.68
2023-11-15T04:42:20.219Z,4.22
2023-11-15T04:44:47.731Z,9.80
2023-11-15T04:47:14.888Z,4.45
2023-11-15T04:49:42.360Z,5.75
2023-11-15T04:52:09.620Z,5.93
2023-11-15T04:54:36.864Z,5.82
2023-11-15T04:57:04.805Z,7.13
2023-11-15T04:59:33.114Z,7.88
2023-11-15T05:02:00.442Z,9.70
2023-11-15T05:04:27.812Z,8.15
2023-11-15T05:06:55.669Z,5.47
2023-11-15T05:09:24.513Z,8.18
2023-11-15T05:11:51.627Z,8.32
2023-11-15T05:14:18.722Z,14.30
2023-11-15T05:16:45.827Z,8.50
2023-11-15T05:19:12.817Z,3.83
2023-11-15T05:21:39.897Z,7.57
2023-11-15T05:24:07.574Z,4.03
2023-11-15T05:26:34.637Z,9.30
2023-11-15T05:29:01.741Z,4.97
2023-11-15T05:31:28.876Z,4.65
2023-11-15T05:33:56.334Z,8.38
2023-11-15T05:36:23.488Z,4.72
2023-11-15T05:38:50.563Z,5.60
2023-11-15T05:41:17.728Z,4.90
2023-11-15T05:43:44.820Z,6.25
2023-11-15T05:46:11.944Z,8.55
2023-11-15T05:48:39.283Z,8.50
2023-11-15T05:51:08.116Z,4.72
2023-11-15T05:53:35.211Z,5.35
2023-11-15T05:56:02.452Z,5.43
2023-11-15T05:58:29.497Z,4.80
2023-11-15T06:00:56.497Z,5.35
2023-11-15T06:03:24.041Z,7.70
2023-11-15T06:05:51.685Z,10.25
2023-11-15T06:08:19.145Z,5.88
2023-11-15T06:10:48.508Z,7.68
2023-11-15T06:13:17.037Z,5.72
2023-11-15T06:15:44.993Z,5.28
2023-11-15T06:18:15.166Z,4.40
2023-11-15T06:20:42.334Z,5.60
2023-11-15T06:23:10.211Z,4.60
2023-11-15T06:25:37.468Z,5.63
2023-11-15T06:28:04.783Z,6.45
2023-11-15T06:30:32.171Z,5.57
2023-11-15T06:32:59.727Z,5.88
2023-11-15T06:35:26.981Z,3.72
2023-11-15T06:37:55.685Z,8.23
2023-11-15T06:40:22.796Z,3.90
2023-11-15T06:42:50.096Z,8.00
2023-11-15T06:45:17.548Z,10.18
2023-11-15T06:47:44.801Z,4.70
2023-11-15T06:50:12.019Z,5.13
2023-11-15T06:52:39.486Z,7.03
2023-11-15T06:55:08.187Z,4.78
2023-11-15T06:57:35.214Z,5.80
2023-11-15T07:00:02.403Z,6.47
2023-11-15T07:02:29.619Z,6.25
2023-11-15T07:04:56.735Z,10.07
2023-11-15T07:07:23.842Z,5.97
2023-11-15T07:09:50.874Z,7.38
2023-11-15T07:12:19.981Z,10.60
2023-11-15T07:14:48.368Z,7.82
2023-11-15T07:17:19.476Z,8.02
2023-11-15T07:19:50.137Z,9.45
2023-11-15T07:22:17.272Z,8.75
2023-11-15T07:24:44.603Z,10.55
2023-11-15T07:27:11.686Z,10.20
2023-11-15T07:29:39.283Z,12.95
2023-11-15T07:32:08.884Z,11.38
2023-11-15T07:34:37.288Z,7.10
2023-11-15T07:37:04.469Z,8.02
2023-11-15T07:39:32.410Z,9.85
2023-11-15T07:42:00.719Z,7.40
2023-11-15T07:44:27.886Z,4.82
2023-11-15T07:46:56.473Z,9.20
2023-11-15T07:49:25.626Z,8.43
2023-11-15T07:51:52.827Z,8.05
2023-11-15T07:54:20.916Z,6.95
2023-11-15T07:56:48.298Z,7.18
2023-11-15T07:59:16.095Z,5.35
2023-11-15T08:01:47.194Z,5.88
2023-11-15T08:04:16.976Z,6.18
2023-11-15T08:06:44.444Z,8.85
2023-11-15T08:09:26.500Z,9.75
2023-11-15T08:11:57.913Z,5.78
2023-11-15T08:14:27.148Z,5.70
2023-11-15T08:16:56.079Z,10.80
2023-11-15T08:19:23.922Z,6.57
2023-11-15T08:21:51.896Z,5.97
2023-11-15T08:24:25.766Z,5.80
2023-11-15T08:26:56.330Z,7.10
2023-11-15T08:29:23.997Z,7.40
2023-11-15T08:31:51.408Z,5.10
2023-11-15T08:34:23.706Z,5.65
2023-11-15T08:36:52.066Z,5.35
2023-11-15T08:39:19.335Z,7.30
2023-11-15T08:41:48.208Z,5.55
2023-11-15T08:44:21.708Z,9.05
2023-11-15T08:46:59.053Z,11.02
2023-11-15T08:49:27.585Z,6.20
2023-11-15T08:51:54.724Z,7.78
2023-11-15T08:54:22.001Z,4.95
2023-11-15T08:56:49.058Z,6.50
2023-11-15T08:59:16.700Z,7.43
2023-11-15T09:01:46.125Z,5.03
2023-11-15T09:04:17.879Z,13.02
2023-11-15T09:06:49.593Z,8.55
2023-11-15T09:09:17.721Z,6.68
2023-11-15T09:11:45.293Z,4.10
2023-11-15T09:14:13.193Z,9.88
2023-11-15T09:16:43.402Z,7.88
2023-11-15T09:19:17.444Z,3.45
2023-11-15T09:21:49.361Z,5.65
2023-11-15T09:24:24.027Z,4.57
2023-11-15T09:26:52.252Z,4.18
2023-11-15T09:29:21.036Z,5.20
2023-11-15T09:31:48.389Z,4.22
2023-11-15T09:34:16.112Z,4.63
2023-11-15T09:36:43.940Z,5.07
2023-11-15T09:39:11.626Z,3.78
2023-11-15T09:41:39.189Z,4.40
2023-11-15T09:44:10.603Z,3.95
2023-11-15T10:17:53.911Z,2.40
2023-11-15T10:20:23.870Z,4.53
2023-11-15T10:22:54.150Z,9.98
2023-11-15T10:25:22.270Z,2.88
2023-11-15T10:27:52.447Z,3.88
2023-11-15T10:30:21.913Z,2.10
2023-11-15T10:32:51.058Z,7.45
2023-11-15T10:35:28.952Z,1.75
2023-11-15T10:37:57.109Z,1.63
2023-11-15T10:40:27.423Z,2.63
2023-11-15T10:42:56.684Z,3.05
2023-11-15T10:45:29.063Z,2.78
2023-11-15T10:47:58.601Z,1.98
2023-11-15T10:50:32.951Z,5.53
2023-11-15T10:53:02.949Z,2.75
2023-11-15T10:55:31.069Z,4.65
2023-11-15T10:58:03.609Z,3.65
2023-11-15T11:00:36.098Z,2.38
2023-11-15T11:03:03.756Z,3.15
2023-11-15T11:05:43.227Z,2.30
2023-11-15T11:08:36.452Z,2.95
2023-11-15T11:11:14.311Z,2.33
2023-11-15T11:13:41.642Z,2.63
2023-11-15T11:16:45.523Z,2.40
2023-11-15T11:19:18.084Z,4.47
2023-11-15T11:22:09.808Z,4.22
2023-11-15T11:24:47.460Z,1.70
2023-11-15T11:27:18.046Z,2.53
2023-11-15T11:29:51.068Z,5.63
2023-11-15T11:32:21.883Z,2.30
2023-11-15T11:35:06.807Z,4.60
2023-11-15T11:37:48.372Z,2.22
2023-11-15T11:40:16.640Z,2.67
2023-11-15T11:42:44.951Z,1.58
2023-11-15T11:45:13.928Z,3.65
2023-11-15T11:47:48.510Z,2.33
2023-11-15T11:50:19.908Z,1.73
2023-11-15T11:52:47.056Z,2.83
2023-11-15T11:55:15.439Z,2.05
2023-11-15T11:57:42.623Z,7.35
2023-11-15T12:00:19.253Z,6.55
2023-11-15T12:02:54.331Z,1.73
2023-11-15T12:05:27.009Z,1.88
2023-11-15T12:07:55.856Z,2.47
2023-11-15T12:10:24.273Z,8.95
2023-11-15T12:13:05.283Z,4.50
2023-11-15T12:15:36.912Z,2.60
2023-11-15T12:18:04.399Z,2.15
2023-11-15T12:20:37.506Z,3.00
2023-11-15T12:23:07.385Z,6.30
2023-11-15T12:25:42.620Z,2.65
2023-11-15T12:28:10.479Z,2.70
2023-11-15T12:30:38.391Z,2.80
2023-11-15T12:33:05.574Z,1.65
2023-11-15T12:35:35.719Z,4.10
2023-11-15T12:38:06.569Z,0.88
2023-11-15T12:40:37.833Z,4.93
2023-11-15T12:43:23.124Z,5.47
2023-11-15T12:45:52.608Z,7.10
2023-11-15T12:48:21.135Z,1.95
2023-11-15T12:50:49.483Z,2.33
2023-11-15T12:53:19.101Z,2.03
2023-11-15T12:55:51.267Z,1.75
2023-11-15T12:58:20.305Z,3.30
2023-11-15T13:01:04.200Z,3.17
2023-11-15T13:03:35.926Z,2.00
2023-11-15T13:06:12.580Z,2.58
2023-11-15T13:11:08.134Z,1.67
2023-11-15T13:13:35.328Z,1.65
2023-11-15T13:16:02.397Z,2.47
2023-11-15T13:18:29.683Z,1.85
2023-11-15T13:20:59.732Z,0.95
2023-11-15T13:23:28.294Z,5.03
2023-11-15T13:25:55.569Z,2.10
2023-11-15T13:28:22.931Z,1.88
2023-11-15T13:30:50.017Z,2.78
2023-11-15T13:33:19.487Z,1.10
2023-11-15T13:35:46.927Z,1.65
2023-11-15T13:38:14.173Z,2.05
2023-11-15T13:40:46.064Z,2.25
2023-11-15T13:43:13.250Z,2.78
2023-11-15T13:45:40.318Z,1.70
2023-11-15T13:48:07.428Z,2.17
2023-11-15T13:50:34.556Z,6.28
2023-11-15T13:53:01.626Z,2.03
2023-11-15T13:55:29.317Z,3.00
2023-11-15T13:57:56.488Z,3.95
2023-11-15T14:00:29.606Z,3.13
2023-11-15T14:02:56.788Z,1.52
2023-11-15T14:05:23.975Z,2.13
2023-11-15T14:07:53.413Z,1.15
2023-11-15T14:10:20.707Z,1.58
2023-11-15T14:12:47.952Z,0.88
2023-11-15T14:15:19.935Z,0.50
2023-11-15T14:17:49.886Z,1.13
2023-11-15T14:20:24.143Z,1.70
2023-11-15T14:22:51.583Z,1.58
2023-11-15T14:25:22.328Z,1.13
2023-11-15T14:27:53.579Z,1.65
2023-11-15T14:30:23.764Z,2.08
2023-11-15T14:32:51.709Z,2.63
2023-11-15T14:35:20.260Z,1.05
2023-11-15T14:37:50.590Z,1.25
2023-11-15T14:40:22.380Z,4.38
2023-11-15T14:42:52.501Z,2.05
2023-11-15T14:45:21.216Z,0.80
2023-11-15T14:47:48.571Z,0.63
2023-11-15T14:50:19.592Z,2.85
2023-11-15T14:52:56.866Z,0.85
2023-11-15T14:55:33.041Z,1.27
2023-11-15T14:58:00.647Z,1.35
2023-11-15T15:00:28.166Z,1.42
2023-11-15T15:02:55.729Z,0.82
2023-11-15T15:05:26.057Z,0.85
2023-11-15T15:07:53.195Z,0.85
2023-11-15T15:10:21.333Z,1.40
2023-11-15T15:12:49.423Z,0.50
2023-11-15T15:15:19.616Z,4.00
2023-11-15T15:17:47.747Z,0.52
2023-11-15T15:20:20.766Z,0.47
2023-11-15T15:22:48.237Z,3.88
2023-11-15T15:25:16.048Z,3.15
2023-11-15T15:27:43.412Z,1.15
2023-11-15T15:30:15.214Z,0.40
2023-11-15T15:32:42.569Z,3.97
2023-11-15T15:35:13.536Z,0.70
2023-11-15T15:37:41.305Z,1.52
2023-11-15T15:40:19.628Z,1.23
2023-11-15T15:42:47.691Z,0.95
2023-11-15T15:45:16.418Z,2.33
2023-11-15T15:47:44.492Z,0.88
2023-11-15T15:50:12.945Z,1.10
2023-11-15T15:52:40.626Z,0.75
2023-11-15T15:55:10.333Z,0.60
2023-11-15T15:57:38.275Z,0.75
2023-11-15T16:00:08.110Z,1.65
2023-11-15T16:02:36.277Z,3.00
2023-11-15T16:05:04.909Z,0.65
2023-11-15T16:07:32.526Z,0.73
2023-11-15T16:10:02.105Z,2.53
2023-11-15T16:12:29.737Z,2.85
2023-11-15T16:14:58.649Z,1.38
2023-11-15T16:17:26.740Z,0.40
2023-11-15T16:19:57.565Z,1.73
2023-11-15T16:22:26.424Z,0.43
2023-11-15T16:24:55.846Z,0.40
2023-11-15T16:27:33.937Z,0.90
2023-11-15T16:30:10.887Z,1.17
2023-11-15T16:32:38.234Z,0.63
2023-11-15T16:35:09.538Z,1.85
2023-11-15T16:37:39.416Z,0.68
2023-11-15T16:40:09.146Z,2.75
2023-11-15T16:42:36.773Z,2.75
2023-11-15T16:45:08.023Z,0.50
2023-11-15T16:47:37.158Z,1.45
2023-11-15T16:50:05.499Z,1.48
2023-11-15T16:52:34.545Z,0.45
2023-11-15T16:55:02.805Z,4.22
2023-11-15T16:57:30.855Z,0.73
2023-11-15T16:59:59.029Z,0.28
2023-11-15T17:02:26.224Z,0.73
2023-11-15T17:04:53.472Z,0.30
2023-11-15T17:07:20.576Z,0.65
2023-11-15T17:09:50.702Z,0.40
2023-11-15T17:12:19.082Z,3.22
2023-11-15T17:14:46.317Z,0.22
2023-11-15T17:17:16.650Z,1.65
2023-11-15T17:19:45.477Z,0.50
2023-11-15T17:22:14.765Z,1.65
2023-11-15T17:24:42.088Z,1.02
2023-11-15T17:27:10.013Z,0.30
2023-11-15T17:29:37.752Z,0.30
2023-11-15T17:32:06.257Z,1.40
2023-11-15T17:34:33.923Z,0.65
2023-11-15T17:37:01.846Z,0.40
2023-11-15T17:39:30.083Z,1.50
2023-11-15T17:41:57.700Z,0.77
2023-11-15T17:44:25.039Z,0.32
2023-11-15T17:46:52.316Z,0.63
2023-11-15T17:49:19.674Z,0.50
2023-11-15T17:51:47.981Z,0.63
2023-11-15T17:54:16.684Z,0.80
2023-11-15T17:56:43.990Z,0.80
2023-11-15T17:59:11.189Z,0.40
2023-11-15T18:01:40.103Z,1.75
2023-11-15T18:04:15.224Z,0.70
2023-11-15T18:06:43.000Z,0.35
2023-11-15T18:09:11.535Z,0.40
2023-11-15T18:11:39.086Z,0.82
2023-11-15T18:14:07.417Z,1.80
2023-11-15T18:16:34.662Z,0.45
2023-11-15T18:19:09.945Z,1.10
2023-11-15T18:21:38.792Z,0.40
2023-11-15T18:26:36.968Z,1.35
2023-11-15T18:29:05.345Z,0.43
2023-11-15T18:31:32.464Z,0.52
2023-11-15T18:33:59.824Z,2.28
2023-11-15T18:36:28.013Z,0.60
2023-11-15T18:38:56.194Z,0.40
2023-11-15T18:41:23.277Z,7.30
2023-11-15T18:43:50.587Z,0.47
2023-11-15T18:46:18.155Z,0.63
2023-11-15T18:48:45.534Z,0.50
2023-11-15T18:51:13.315Z,0.90
2023-11-15T18:53:40.764Z,0.90
2023-11-15T18:56:08.353Z,0.50
2023-11-15T18:58:37.025Z,1.45
2023-11-15T19:01:04.584Z,0.55
2023-11-15T19:03:31.915Z,0.82
2023-11-15T19:05:59.298Z,3.60
2023-11-15T19:08:26.421Z,0.50
2023-11-15T19:10:55.787Z,0.63
2023-11-15T19:13:26.521Z,0.50
2023-11-15T19:15:59.370Z,0.80
2023-11-15T19:18:30.019Z,0.90
2023-11-15T19:20:58.986Z,0.73
2023-11-15T19:23:26.884Z,0.45
2023-11-15T19:25:54.185Z,1.45
2023-11-15T19:28:21.755Z,4.32
2023-11-15T19:30:50.474Z,0.65
2023-11-15T19:33:18.628Z,0.98
2023-11-15T19:35:47.158Z,2.75
2023-11-15T19:38:14.524Z,0.85
2023-11-15T19:40:41.783Z,0.95
2023-11-15T19:43:10.634Z,2.10
2023-11-15T19:45:37.988Z,1.33
2023-11-15T19:48:06.333Z,1.02
2023-11-15T19:50:33.729Z,0.75
2023-11-15T19:53:04.100Z,1.23
2023-11-15T19:55:32.238Z,0.90
2023-11-15T19:57:59.973Z,0.75
2023-11-15T20:00:27.121Z,1.02
2023-11-15T20:02:54.411Z,1.27
2023-11-15T20:05:23.138Z,1.02
2023-11-15T20:07:50.531Z,0.68
2023-11-15T20:10:19.341Z,2.53
2023-11-15T20:12:47.821Z,0.95
2023-11-15T20:15:18.040Z,0.70
2023-11-15T20:17:46.479Z,0.50
2023-11-15T20:20:16.476Z,1.83
2023-11-15T20:22:50.689Z,1.10
2023-11-15T20:25:20.669Z,1.13
2023-11-15T20:27:47.953Z,1.23
2023-11-15T20:30:15.957Z,0.65
2023-11-15T20:32:43.384Z,1.00
2023-11-15T20:35:12.115Z,0.75
2023-11-15T20:37:39.351Z,3.70
2023-11-15T20:40:08.886Z,0.52
2023-11-15T20:42:36.386Z,1.58
2023-11-15T20:45:03.879Z,0.50
2023-11-15T20:47:31.110Z,0.95
2023-11-15T20:49:58.261Z,0.43
2023-11-15T20:52:25.988Z,1.95
2023-11-15T20:54:53.196Z,1.33
2023-11-15T20:57:20.766Z,0.63
2023-11-15T20:59:47.835Z,0.98
2023-11-15T21:02:15.586Z,0.57
2023-11-15T21:04:43.360Z,0.60
2023-11-15T21:07:11.787Z,0.80
2023-11-15T21:09:39.833Z,2.03
2023-11-15T21:12:07.156Z,0.40
2023-11-15T21:14:34.629Z,1.08
2023-11-15T21:17:01.720Z,1.55
2023-11-15T21:19:28.878Z,1.88
2023-11-15T21:21:56.251Z,0.85
2023-11-15T21:24:23.592Z,0.90
2023-11-15T21:26:55.343Z,3.75
2023-11-15T21:29:23.967Z,1.23
2023-11-15T21:31:54.729Z,0.50
2023-11-15T21:34:22.016Z,0.85
2023-11-15T21:36:49.186Z,0.85
2023-11-15T21:39:16.322Z,3.13
2023-11-15T21:41:43.419Z,1.10
2023-11-15T21:44:10.514Z,1.00
2023-11-15T21:46:38.437Z,1.88
2023-11-15T21:49:05.808Z,0.65
2023-11-15T21:51:33.002Z,1.42
2023-11-15T21:54:01.588Z,1.00
2023-11-15T21:56:28.769Z,0.88
2023-11-15T21:58:55.857Z,0.90
2023-11-15T22:01:23.170Z,0.47
2023-11-15T22:03:50.306Z,0.95
2023-11-15T22:06:17.548Z,0.70
2023-11-15T22:08:44.861Z,0.68
2023-11-15T22:11:12.098Z,0.82
2023-11-15T22:13:39.188Z,1.60
2023-11-15T22:16:06.765Z,2.38
2023-11-15T22:18:33.951Z,0.77
2023-11-15T22:21:01.084Z,0.80
2023-11-15T22:23:30.121Z,0.73
2023-11-15T22:25:57.318Z,0.68
2023-11-15T22:28:25.776Z,1.02
2023-11-15T22:30:53.061Z,1.38
2023-11-15T22:33:20.218Z,0.50
2023-11-15T22:35:49.913Z,0.93
2023-11-15T22:38:17.791Z,2.25
2023-11-15T22:40:45.501Z,2.08
2023-11-15T22:43:14.227Z,1.30
2023-11-15T22:45:42.154Z,0.80
2023-11-15T22:48:09.603Z,1.05
2023-11-15T22:50:36.781Z,0.28
2023-11-15T22:53:03.805Z,1.08
2023-11-15T22:55:30.808Z,0.75
2023-11-15T22:57:57.866Z,0.60
2023-11-15T23:00:34.735Z,1.50
2023-11-15T23:03:10.529Z,0.85
2023-11-15T23:05:42.322Z,0.63
2023-11-15T23:08:10.727Z,1.65
2023-11-15T23:10:40.995Z,0.43
2023-11-15T23:13:08.078Z,2.65
2023-11-15T23:15:35.315Z,0.73
2023-11-15T23:18:02.568Z,1.17
2023-11-15T23:20:35.196Z,0.52
2023-11-15T23:23:02.935Z,0.30
2023-11-15T23:25:30.659Z,1.40
2023-11-15T23:27:57.834Z,0.95
2023-11-15T23:30:25.662Z,0.45
2023-11-15T23:32:53.545Z,1.63
2023-11-15T23:35:21.499Z,0.45
2023-11-15T23:37:49.355Z,0.95
2023-11-15T23:40:16.636Z,1.60
2023-11-15T23:42:46.705Z,0.40
2023-11-15T23:45:15.750Z,0.50
2023-11-15T23:47:43.487Z,3.33
2023-11-15T23:50:11.012Z,2.25
2023-11-15T23:52:38.165Z,0.63
2023-11-15T23:55:05.703Z,1.02
2023-11-15T23:57:33.728Z,0.70
